Terminal Aerodrome Forecast
Issued by NWS Green Bay, WI

Home | Current Version | Previous Version | Graphics & Text | Print | Product List | Glossary On
Versions: 1 2 3 4 5 6 7 8 9 10 11 12 13 14 15 16 17
000
FTUS43 KGRB 220520
TAFGRB
TAF
KGRB 220520Z 2206/2306 16007KT P6SM BKN050 WS020/26035KT
      TEMPO 2206/2210 2SM TSRA BKN022CB
     FM221000 21008KT 6SM -SHRA BR BKN045 WS017/27030KT
     FM221300 23010G16KT P6SM BKN040
     FM221700 25010G15KT P6SM BKN040 PROB30 2220/2224 1SM TSRA
      BKN022CB
     FM230000 VRB03KT 6SM -SHRA SCT030 BKN040
     FM230400 VRB03KT P6SM SCT040 BKN070=

USA.gov is the U.S. government's official web portal to all federal, state and local government web resources and services.